sensor_id;sensor_type;location;lat;lon;timestamp;P1;durP1;ratioP1;P2;durP2;ratioP2
19207;SDS011;9737;59.466;18.036;2023-07-20T00:00:11;2.60;;;1.40;;
19207;SDS011;9737;59.466;18.036;2023-07-20T00:02:40;3.33;;;1.42;;
19207;SDS011;9737;59.466;18.036;2023-07-20T00:05:08;4.03;;;1.55;;
19207;SDS011;9737;59.466;18.036;2023-07-20T00:07:37;2.30;;;1.30;;
19207;SDS011;9737;59.466;18.036;2023-07-20T00:10:05;4.05;;;1.70;;
19207;SDS011;9737;59.466;18.036;2023-07-20T00:12:34;2.55;;;1.40;;
19207;SDS011;9737;59.466;18.036;2023-07-20T00:15:01;2.25;;;1.50;;
19207;SDS011;9737;59.466;18.036;2023-07-20T00:17:30;2.08;;;1.40;;
19207;SDS011;9737;59.466;18.036;2023-07-20T00:19:58;4.18;;;1.40;;
19207;SDS011;9737;59.466;18.036;2023-07-20T00:22:25;2.80;;;1.48;;
19207;SDS011;9737;59.466;18.036;2023-07-20T00:24:55;2.70;;;1.40;;
19207;SDS011;9737;59.466;18.036;2023-07-20T00:27:23;3.60;;;1.50;;
19207;SDS011;9737;59.466;18.036;2023-07-20T00:29:51;2.88;;;1.60;;
19207;SDS011;9737;59.466;18.036;2023-07-20T00:32:19;3.55;;;1.60;;
19207;SDS011;9737;59.466;18.036;2023-07-20T00:34:46;4.85;;;1.50;;
19207;SDS011;9737;59.466;18.036;2023-07-20T00:37:14;4.45;;;1.58;;
19207;SDS011;9737;59.466;18.036;2023-07-20T00:39:42;8.23;;;1.83;;
19207;SDS011;9737;59.466;18.036;2023-07-20T00:42:11;5.20;;;1.80;;
19207;SDS011;9737;59.466;18.036;2023-07-20T00:44:39;2.83;;;1.60;;
19207;SDS011;9737;59.466;18.036;2023-07-20T00:47:07;4.10;;;1.50;;
19207;SDS011;9737;59.466;18.036;2023-07-20T00:49:35;6.22;;;1.85;;
19207;SDS011;9737;59.466;18.036;2023-07-20T00:52:03;3.88;;;1.58;;
19207;SDS011;9737;59.466;18.036;2023-07-20T00:54:33;6.57;;;2.00;;
19207;SDS011;9737;59.466;18.036;2023-07-20T00:57:01;2.85;;;1.85;;
19207;SDS011;9737;59.466;18.036;2023-07-20T00:59:31;6.20;;;1.67;;
19207;SDS011;9737;59.466;18.036;2023-07-20T01:01:59;7.68;;;1.70;;
19207;SDS011;9737;59.466;18.036;2023-07-20T01:04:27;3.75;;;1.60;;
19207;SDS011;9737;59.466;18.036;2023-07-20T01:06:57;5.15;;;1.65;;
19207;SDS011;9737;59.466;18.036;2023-07-20T01:09:30;12.15;;;1.60;;
19207;SDS011;9737;59.466;18.036;2023-07-20T01:12:02;2.53;;;1.50;;
19207;SDS011;9737;59.466;18.036;2023-07-20T01:14:36;3.58;;;1.77;;
19207;SDS011;9737;59.466;18.036;2023-07-20T01:17:04;2.83;;;1.80;;
19207;SDS011;9737;59.466;18.036;2023-07-20T01:19:32;5.95;;;1.80;;
19207;SDS011;9737;59.466;18.036;2023-07-20T01:22:01;5.63;;;1.70;;
19207;SDS011;9737;59.466;18.036;2023-07-20T01:24:51;6.60;;;1.77;;
19207;SDS011;9737;59.466;18.036;2023-07-20T01:27:38;2.83;;;1.58;;
19207;SDS011;9737;59.466;18.036;2023-07-20T01:30:45;5.93;;;1.85;;
19207;SDS011;9737;59.466;18.036;2023-07-20T01:33:19;9.93;;;2.00;;
19207;SDS011;9737;59.466;18.036;2023-07-20T01:35:53;8.80;;;1.92;;
19207;SDS011;9737;59.466;18.036;2023-07-20T01:38:23;8.63;;;1.90;;
19207;SDS011;9737;59.466;18.036;2023-07-20T01:40:52;6.70;;;2.00;;
19207;SDS011;9737;59.466;18.036;2023-07-20T01:43:20;5.50;;;1.95;;
19207;SDS011;9737;59.466;18.036;2023-07-20T01:45:48;6.68;;;1.80;;
19207;SDS011;9737;59.466;18.036;2023-07-20T01:48:15;6.53;;;2.00;;
19207;SDS011;9737;59.466;18.036;2023-07-20T01:50:45;10.65;;;1.92;;
19207;SDS011;9737;59.466;18.036;2023-07-20T01:53:13;5.05;;;1.70;;
19207;SDS011;9737;59.466;18.036;2023-07-20T01:55:41;7.05;;;1.92;;
19207;SDS011;9737;59.466;18.036;2023-07-20T01:58:08;4.75;;;1.65;;
19207;SDS011;9737;59.466;18.036;2023-07-20T02:00:37;6.82;;;1.95;;
19207;SDS011;9737;59.466;18.036;2023-07-20T02:03:05;5.57;;;1.92;;
19207;SDS011;9737;59.466;18.036;2023-07-20T02:05:33;7.07;;;1.88;;
19207;SDS011;9737;59.466;18.036;2023-07-20T02:08:03;3.92;;;1.70;;
19207;SDS011;9737;59.466;18.036;2023-07-20T02:10:31;7.60;;;1.95;;
19207;SDS011;9737;59.466;18.036;2023-07-20T02:12:58;5.05;;;1.90;;
19207;SDS011;9737;59.466;18.036;2023-07-20T02:15:26;7.10;;;2.10;;
19207;SDS011;9737;59.466;18.036;2023-07-20T02:17:55;4.40;;;1.90;;
19207;SDS011;9737;59.466;18.036;2023-07-20T02:20:22;5.85;;;1.73;;
19207;SDS011;9737;59.466;18.036;2023-07-20T02:22:50;5.68;;;2.40;;
19207;SDS011;9737;59.466;18.036;2023-07-20T02:25:20;7.15;;;1.88;;
19207;SDS011;9737;59.466;18.036;2023-07-20T02:27:48;7.43;;;2.10;;
19207;SDS011;9737;59.466;18.036;2023-07-20T02:30:15;7.13;;;2.10;;
19207;SDS011;9737;59.466;18.036;2023-07-20T02:32:44;4.68;;;2.08;;
19207;SDS011;9737;59.466;18.036;2023-07-20T02:35:15;13.50;;;2.20;;
19207;SDS011;9737;59.466;18.036;2023-07-20T02:37:43;6.05;;;1.88;;
19207;SDS011;9737;59.466;18.036;2023-07-20T02:40:11;9.52;;;2.00;;
19207;SDS011;9737;59.466;18.036;2023-07-20T02:42:40;9.02;;;2.22;;
19207;SDS011;9737;59.466;18.036;2023-07-20T02:45:09;4.75;;;1.98;;
19207;SDS011;9737;59.466;18.036;2023-07-20T02:47:37;11.45;;;2.20;;
19207;SDS011;9737;59.466;18.036;2023-07-20T02:50:06;5.05;;;2.05;;
19207;SDS011;9737;59.466;18.036;2023-07-20T02:52:35;9.38;;;2.60;;
19207;SDS011;9737;59.466;18.036;2023-07-20T02:55:03;13.13;;;2.35;;
19207;SDS011;9737;59.466;18.036;2023-07-20T02:57:32;9.55;;;2.25;;
19207;SDS011;9737;59.466;18.036;2023-07-20T03:00:01;10.00;;;2.45;;
19207;SDS011;9737;59.466;18.036;2023-07-20T03:02:30;10.75;;;2.35;;
19207;SDS011;9737;59.466;18.036;2023-07-20T03:04:58;8.88;;;2.25;;
19207;SDS011;9737;59.466;18.036;2023-07-20T03:07:28;7.78;;;2.60;;
19207;SDS011;9737;59.466;18.036;2023-07-20T03:09:56;7.25;;;2.70;;
19207;SDS011;9737;59.466;18.036;2023-07-20T03:12:24;10.88;;;2.47;;
19207;SDS011;9737;59.466;18.036;2023-07-20T03:14:52;8.63;;;2.55;;
19207;SDS011;9737;59.466;18.036;2023-07-20T03:17:21;7.53;;;1.90;;
19207;SDS011;9737;59.466;18.036;2023-07-20T03:19:49;9.82;;;2.28;;
19207;SDS011;9737;59.466;18.036;2023-07-20T03:22:17;7.40;;;2.22;;
19207;SDS011;9737;59.466;18.036;2023-07-20T03:24:45;6.95;;;2.50;;
19207;SDS011;9737;59.466;18.036;2023-07-20T03:27:13;7.40;;;2.28;;
19207;SDS011;9737;59.466;18.036;2023-07-20T03:29:41;7.10;;;2.42;;
19207;SDS011;9737;59.466;18.036;2023-07-20T03:32:10;6.95;;;2.33;;
19207;SDS011;9737;59.466;18.036;2023-07-20T03:34:39;12.27;;;2.60;;
19207;SDS011;9737;59.466;18.036;2023-07-20T03:37:08;7.57;;;2.67;;
19207;SDS011;9737;59.466;18.036;2023-07-20T03:39:36;12.07;;;2.63;;
19207;SDS011;9737;59.466;18.036;2023-07-20T03:42:04;6.85;;;2.35;;
19207;SDS011;9737;59.466;18.036;2023-07-20T03:44:33;6.70;;;2.17;;
19207;SDS011;9737;59.466;18.036;2023-07-20T03:47:00;12.25;;;2.53;;
19207;SDS011;9737;59.466;18.036;2023-07-20T03:49:30;11.88;;;2.92;;
19207;SDS011;9737;59.466;18.036;2023-07-20T03:51:59;9.60;;;2.40;;
19207;SDS011;9737;59.466;18.036;2023-07-20T03:54:29;9.02;;;2.40;;
19207;SDS011;9737;59.466;18.036;2023-07-20T03:56:57;13.20;;;2.67;;
19207;SDS011;9737;59.466;18.036;2023-07-20T03:59:27;11.63;;;2.60;;
19207;SDS011;9737;59.466;18.036;2023-07-20T04:01:54;9.93;;;2.55;;
19207;SDS011;9737;59.466;18.036;2023-07-20T04:04:22;8.02;;;2.40;;
19207;SDS011;9737;59.466;18.036;2023-07-20T04:06:50;13.40;;;2.55;;
19207;SDS011;9737;59.466;18.036;2023-07-20T04:09:19;10.05;;;2.50;;
19207;SDS011;9737;59.466;18.036;2023-07-20T04:11:47;7.43;;;2.40;;
19207;SDS011;9737;59.466;18.036;2023-07-20T04:14:15;9.82;;;2.70;;
19207;SDS011;9737;59.466;18.036;2023-07-20T04:16:43;9.25;;;2.58;;
19207;SDS011;9737;59.466;18.036;2023-07-20T04:19:14;12.00;;;2.80;;
19207;SDS011;9737;59.466;18.036;2023-07-20T04:21:42;9.00;;;2.60;;
19207;SDS011;9737;59.466;18.036;2023-07-20T04:24:09;4.72;;;2.25;;
19207;SDS011;9737;59.466;18.036;2023-07-20T04:26:39;6.63;;;2.58;;
19207;SDS011;9737;59.466;18.036;2023-07-20T04:29:06;8.77;;;2.45;;
19207;SDS011;9737;59.466;18.036;2023-07-20T04:31:34;6.57;;;2.67;;
19207;SDS011;9737;59.466;18.036;2023-07-20T04:34:02;8.88;;;2.47;;
19207;SDS011;9737;59.466;18.036;2023-07-20T04:36:30;8.18;;;2.72;;
19207;SDS011;9737;59.466;18.036;2023-07-20T04:38:58;7.72;;;2.60;;
19207;SDS011;9737;59.466;18.036;2023-07-20T04:41:26;6.80;;;2.40;;
19207;SDS011;9737;59.466;18.036;2023-07-20T04:43:55;9.25;;;2.63;;
19207;SDS011;9737;59.466;18.036;2023-07-20T04:46:23;8.95;;;2.75;;
19207;SDS011;9737;59.466;18.036;2023-07-20T04:48:52;13.00;;;2.38;;
19207;SDS011;9737;59.466;18.036;2023-07-20T04:51:20;11.63;;;2.55;;
19207;SDS011;9737;59.466;18.036;2023-07-20T04:53:48;9.18;;;2.88;;
19207;SDS011;9737;59.466;18.036;2023-07-20T04:56:17;12.15;;;2.42;;
19207;SDS011;9737;59.466;18.036;2023-07-20T04:58:44;11.38;;;2.50;;
19207;SDS011;9737;59.466;18.036;2023-07-20T05:01:14;9.20;;;2.88;;
19207;SDS011;9737;59.466;18.036;2023-07-20T05:03:42;11.65;;;2.78;;
19207;SDS011;9737;59.466;18.036;2023-07-20T05:06:10;10.98;;;2.80;;
19207;SDS011;9737;59.466;18.036;2023-07-20T05:08:38;10.10;;;2.58;;
19207;SDS011;9737;59.466;18.036;2023-07-20T05:11:06;10.25;;;2.70;;
19207;SDS011;9737;59.466;18.036;2023-07-20T05:13:34;5.55;;;2.72;;
19207;SDS011;9737;59.466;18.036;2023-07-20T05:16:02;12.02;;;2.65;;
19207;SDS011;9737;59.466;18.036;2023-07-20T05:18:32;8.25;;;2.85;;
19207;SDS011;9737;59.466;18.036;2023-07-20T05:21:00;11.32;;;3.40;;
19207;SDS011;9737;59.466;18.036;2023-07-20T05:23:27;11.48;;;2.85;;
19207;SDS011;9737;59.466;18.036;2023-07-20T05:25:56;9.15;;;2.70;;
19207;SDS011;9737;59.466;18.036;2023-07-20T05:28:24;7.75;;;2.60;;
19207;SDS011;9737;59.466;18.036;2023-07-20T05:30:52;11.80;;;2.97;;
19207;SDS011;9737;59.466;18.036;2023-07-20T05:33:21;13.95;;;2.65;;
19207;SDS011;9737;59.466;18.036;2023-07-20T05:35:51;11.65;;;3.58;;
19207;SDS011;9737;59.466;18.036;2023-07-20T05:38:18;9.75;;;3.10;;
19207;SDS011;9737;59.466;18.036;2023-07-20T05:40:46;11.73;;;2.90;;
19207;SDS011;9737;59.466;18.036;2023-07-20T05:43:14;10.02;;;2.58;;
19207;SDS011;9737;59.466;18.036;2023-07-20T05:45:42;11.05;;;2.55;;
19207;SDS011;9737;59.466;18.036;2023-07-20T05:48:11;14.40;;;2.78;;
19207;SDS011;9737;59.466;18.036;2023-07-20T05:50:41;6.65;;;2.72;;
19207;SDS011;9737;59.466;18.036;2023-07-20T05:53:11;8.48;;;2.72;;
19207;SDS011;9737;59.466;18.036;2023-07-20T05:55:39;9.95;;;2.55;;
19207;SDS011;9737;59.466;18.036;2023-07-20T05:58:07;9.40;;;2.45;;
19207;SDS011;9737;59.466;18.036;2023-07-20T06:00:34;10.23;;;2.60;;
19207;SDS011;9737;59.466;18.036;2023-07-20T06:03:02;9.75;;;2.45;;
19207;SDS011;9737;59.466;18.036;2023-07-20T06:05:30;13.35;;;3.22;;
19207;SDS011;9737;59.466;18.036;2023-07-20T06:07:58;9.05;;;2.83;;
19207;SDS011;9737;59.466;18.036;2023-07-20T06:10:28;13.18;;;2.63;;
19207;SDS011;9737;59.466;18.036;2023-07-20T06:12:56;6.90;;;2.78;;
19207;SDS011;9737;59.466;18.036;2023-07-20T06:15:24;11.75;;;3.13;;
19207;SDS011;9737;59.466;18.036;2023-07-20T06:17:54;13.52;;;3.08;;
19207;SDS011;9737;59.466;18.036;2023-07-20T06:20:22;15.27;;;2.92;;
19207;SDS011;9737;59.466;18.036;2023-07-20T06:22:51;9.38;;;2.80;;
19207;SDS011;9737;59.466;18.036;2023-07-20T06:25:18;8.80;;;2.55;;
19207;SDS011;9737;59.466;18.036;2023-07-20T06:27:48;7.88;;;2.75;;
19207;SDS011;9737;59.466;18.036;2023-07-20T06:30:17;13.38;;;2.90;;
19207;SDS011;9737;59.466;18.036;2023-07-20T06:32:45;9.75;;;2.53;;
19207;SDS011;9737;59.466;18.036;2023-07-20T06:35:13;6.55;;;2.40;;
19207;SDS011;9737;59.466;18.036;2023-07-20T06:37:42;8.82;;;2.80;;
19207;SDS011;9737;59.466;18.036;2023-07-20T06:40:10;7.05;;;2.40;;
19207;SDS011;9737;59.466;18.036;2023-07-20T06:42:41;9.30;;;2.80;;
19207;SDS011;9737;59.466;18.036;2023-07-20T06:45:13;10.70;;;2.70;;
19207;SDS011;9737;59.466;18.036;2023-07-20T06:47:42;9.13;;;2.95;;
19207;SDS011;9737;59.466;18.036;2023-07-20T06:50:10;12.07;;;2.65;;
19207;SDS011;9737;59.466;18.036;2023-07-20T06:52:43;7.90;;;2.50;;
19207;SDS011;9737;59.466;18.036;2023-07-20T06:55:12;8.88;;;2.55;;
19207;SDS011;9737;59.466;18.036;2023-07-20T06:57:41;11.90;;;2.60;;
19207;SDS011;9737;59.466;18.036;2023-07-20T07:00:15;15.55;;;2.92;;
19207;SDS011;9737;59.466;18.036;2023-07-20T07:02:44;8.57;;;2.85;;
19207;SDS011;9737;59.466;18.036;2023-07-20T07:05:15;13.02;;;2.50;;
19207;SDS011;9737;59.466;18.036;2023-07-20T07:07:47;7.78;;;2.55;;
19207;SDS011;9737;59.466;18.036;2023-07-20T07:10:15;10.35;;;2.95;;
19207;SDS011;9737;59.466;18.036;2023-07-20T07:12:43;9.35;;;3.13;;
19207;SDS011;9737;59.466;18.036;2023-07-20T07:15:11;6.70;;;2.63;;
19207;SDS011;9737;59.466;18.036;2023-07-20T07:17:40;6.57;;;2.35;;
19207;SDS011;9737;59.466;18.036;2023-07-20T07:20:10;8.73;;;2.25;;
19207;SDS011;9737;59.466;18.036;2023-07-20T07:22:47;7.43;;;2.58;;
19207;SDS011;9737;59.466;18.036;2023-07-20T07:25:19;7.88;;;2.63;;
19207;SDS011;9737;59.466;18.036;2023-07-20T07:27:49;12.35;;;2.40;;
19207;SDS011;9737;59.466;18.036;2023-07-20T07:30:17;11.75;;;2.70;;
19207;SDS011;9737;59.466;18.036;2023-07-20T07:32:47;11.55;;;2.67;;
19207;SDS011;9737;59.466;18.036;2023-07-20T07:35:15;11.10;;;2.70;;
19207;SDS011;9737;59.466;18.036;2023-07-20T07:37:43;6.05;;;2.10;;
19207;SDS011;9737;59.466;18.036;2023-07-20T07:40:32;9.05;;;2.53;;
19207;SDS011;9737;59.466;18.036;2023-07-20T07:43:00;8.35;;;2.33;;
19207;SDS011;9737;59.466;18.036;2023-07-20T07:45:28;7.78;;;2.58;;
19207;SDS011;9737;59.466;18.036;2023-07-20T07:47:57;8.32;;;2.10;;
19207;SDS011;9737;59.466;18.036;2023-07-20T07:50:25;11.50;;;2.78;;
19207;SDS011;9737;59.466;18.036;2023-07-20T07:52:53;7.97;;;2.70;;
19207;SDS011;9737;59.466;18.036;2023-07-20T07:55:21;6.55;;;2.33;;
19207;SDS011;9737;59.466;18.036;2023-07-20T07:57:49;10.60;;;2.80;;
19207;SDS011;9737;59.466;18.036;2023-07-20T08:00:17;10.02;;;2.38;;
19207;SDS011;9737;59.466;18.036;2023-07-20T08:02:46;7.80;;;2.53;;
19207;SDS011;9737;59.466;18.036;2023-07-20T08:05:16;5.35;;;2.42;;
19207;SDS011;9737;59.466;18.036;2023-07-20T08:07:45;7.90;;;2.45;;
19207;SDS011;9737;59.466;18.036;2023-07-20T08:10:12;6.40;;;2.30;;
19207;SDS011;9737;59.466;18.036;2023-07-20T08:12:40;8.48;;;2.28;;
19207;SDS011;9737;59.466;18.036;2023-07-20T08:15:10;6.22;;;2.47;;
19207;SDS011;9737;59.466;18.036;2023-07-20T08:17:40;5.57;;;2.67;;
19207;SDS011;9737;59.466;18.036;2023-07-20T08:20:09;10.90;;;2.58;;
19207;SDS011;9737;59.466;18.036;2023-07-20T08:22:40;6.75;;;2.30;;
19207;SDS011;9737;59.466;18.036;2023-07-20T08:25:08;9.02;;;2.53;;
19207;SDS011;9737;59.466;18.036;2023-07-20T08:27:36;5.35;;;2.20;;
19207;SDS011;9737;59.466;18.036;2023-07-20T08:30:05;8.80;;;2.50;;
19207;SDS011;9737;59.466;18.036;2023-07-20T08:32:34;3.95;;;1.80;;
19207;SDS011;9737;59.466;18.036;2023-07-20T08:35:02;7.50;;;2.25;;
19207;SDS011;9737;59.466;18.036;2023-07-20T08:37:31;9.38;;;1.95;;
19207;SDS011;9737;59.466;18.036;2023-07-20T08:40:01;7.18;;;2.50;;
19207;SDS011;9737;59.466;18.036;2023-07-20T08:42:34;5.13;;;2.30;;
19207;SDS011;9737;59.466;18.036;2023-07-20T08:45:04;6.32;;;2.40;;
19207;SDS011;9737;59.466;18.036;2023-07-20T08:47:35;5.95;;;2.20;;
19207;SDS011;9737;59.466;18.036;2023-07-20T08:50:05;8.75;;;2.30;;
19207;SDS011;9737;59.466;18.036;2023-07-20T08:52:35;9.13;;;2.42;;
19207;SDS011;9737;59.466;18.036;2023-07-20T08:55:05;9.23;;;2.35;;
19207;SDS011;9737;59.466;18.036;2023-07-20T08:57:33;6.00;;;2.28;;
19207;SDS011;9737;59.466;18.036;2023-07-20T09:00:02;9.02;;;2.70;;
19207;SDS011;9737;59.466;18.036;2023-07-20T09:02:35;8.48;;;2.50;;
19207;SDS011;9737;59.466;18.036;2023-07-20T09:05:07;6.60;;;2.22;;
19207;SDS011;9737;59.466;18.036;2023-07-20T09:07:38;10.48;;;2.55;;
19207;SDS011;9737;59.466;18.036;2023-07-20T09:10:08;6.75;;;2.20;;
19207;SDS011;9737;59.466;18.036;2023-07-20T09:12:37;7.72;;;2.40;;
19207;SDS011;9737;59.466;18.036;2023-07-20T09:15:05;6.50;;;2.20;;
19207;SDS011;9737;59.466;18.036;2023-07-20T09:17:34;6.68;;;2.20;;
19207;SDS011;9737;59.466;18.036;2023-07-20T09:20:03;6.82;;;2.13;;
19207;SDS011;9737;59.466;18.036;2023-07-20T09:22:37;9.10;;;2.30;;
19207;SDS011;9737;59.466;18.036;2023-07-20T09:25:09;4.82;;;2.00;;
19207;SDS011;9737;59.466;18.036;2023-07-20T09:27:40;5.28;;;2.28;;
19207;SDS011;9737;59.466;18.036;2023-07-20T09:30:10;6.68;;;2.10;;
19207;SDS011;9737;59.466;18.036;2023-07-20T09:32:44;5.45;;;2.50;;
19207;SDS011;9737;59.466;18.036;2023-07-20T09:35:16;7.50;;;2.00;;
19207;SDS011;9737;59.466;18.036;2023-07-20T09:37:49;5.20;;;2.28;;
19207;SDS011;9737;59.466;18.036;2023-07-20T09:40:40;6.57;;;2.22;;
19207;SDS011;9737;59.466;18.036;2023-07-20T09:43:12;7.15;;;2.05;;
19207;SDS011;9737;59.466;18.036;2023-07-20T09:45:42;5.35;;;2.42;;
19207;SDS011;9737;59.466;18.036;2023-07-20T09:48:13;5.97;;;1.95;;
19207;SDS011;9737;59.466;18.036;2023-07-20T09:50:48;6.13;;;2.15;;
19207;SDS011;9737;59.466;18.036;2023-07-20T09:53:17;8.32;;;1.95;;
19207;SDS011;9737;59.466;18.036;2023-07-20T09:55:47;3.58;;;1.88;;
19207;SDS011;9737;59.466;18.036;2023-07-20T09:58:16;4.10;;;1.88;;
19207;SDS011;9737;59.466;18.036;2023-07-20T10:00:45;5.32;;;1.73;;
19207;SDS011;9737;59.466;18.036;2023-07-20T10:03:19;4.22;;;1.83;;
19207;SDS011;9737;59.466;18.036;2023-07-20T10:05:48;5.68;;;1.80;;
19207;SDS011;9737;59.466;18.036;2023-07-20T10:08:21;5.78;;;1.85;;
19207;SDS011;9737;59.466;18.036;2023-07-20T10:10:56;5.85;;;1.80;;
19207;SDS011;9737;59.466;18.036;2023-07-20T10:13:25;4.55;;;1.85;;
19207;SDS011;9737;59.466;18.036;2023-07-20T10:15:55;3.50;;;1.70;;
19207;SDS011;9737;59.466;18.036;2023-07-20T10:18:30;2.67;;;1.40;;
19207;SDS011;9737;59.466;18.036;2023-07-20T10:21:02;4.47;;;1.40;;
19207;SDS011;9737;59.466;18.036;2023-07-20T10:23:36;3.22;;;1.50;;
19207;SDS011;9737;59.466;18.036;2023-07-20T10:26:07;4.85;;;1.75;;
19207;SDS011;9737;59.466;18.036;2023-07-20T10:28:37;6.53;;;1.70;;
19207;SDS011;9737;59.466;18.036;2023-07-20T10:31:06;4.55;;;1.60;;
19207;SDS011;9737;59.466;18.036;2023-07-20T10:33:35;4.50;;;1.65;;
19207;SDS011;9737;59.466;18.036;2023-07-20T10:36:05;4.07;;;1.73;;
19207;SDS011;9737;59.466;18.036;2023-07-20T10:38:40;2.58;;;1.42;;
19207;SDS011;9737;59.466;18.036;2023-07-20T10:41:19;2.05;;;1.42;;
19207;SDS011;9737;59.466;18.036;2023-07-20T10:43:48;2.60;;;1.17;;
19207;SDS011;9737;59.466;18.036;2023-07-20T10:49:17;3.05;;;1.30;;
19207;SDS011;9737;59.466;18.036;2023-07-20T10:51:56;2.35;;;1.20;;
19207;SDS011;9737;59.466;18.036;2023-07-20T10:54:34;1.63;;;1.17;;
19207;SDS011;9737;59.466;18.036;2023-07-20T10:57:23;2.30;;;1.00;;
19207;SDS011;9737;59.466;18.036;2023-07-20T11:00:10;2.03;;;1.10;;
19207;SDS011;9737;59.466;18.036;2023-07-20T11:02:46;2.72;;;1.10;;
19207;SDS011;9737;59.466;18.036;2023-07-20T11:05:31;2.83;;;0.90;;
19207;SDS011;9737;59.466;18.036;2023-07-20T11:08:03;0.90;;;0.80;;
19207;SDS011;9737;59.466;18.036;2023-07-20T11:10:32;1.38;;;0.80;;
19207;SDS011;9737;59.466;18.036;2023-07-20T11:13:20;0.85;;;0.82;;
19207;SDS011;9737;59.466;18.036;2023-07-20T11:16:03;3.17;;;0.88;;
19207;SDS011;9737;59.466;18.036;2023-07-20T11:18:35;1.42;;;0.90;;
19207;SDS011;9737;59.466;18.036;2023-07-20T11:21:07;3.42;;;0.80;;
19207;SDS011;9737;59.466;18.036;2023-07-20T11:23:37;2.85;;;0.90;;
19207;SDS011;9737;59.466;18.036;2023-07-20T11:26:06;1.23;;;0.70;;
19207;SDS011;9737;59.466;18.036;2023-07-20T11:28:35;2.55;;;0.93;;
19207;SDS011;9737;59.466;18.036;2023-07-20T11:31:03;3.13;;;1.00;;
19207;SDS011;9737;59.466;18.036;2023-07-20T11:33:31;1.80;;;0.88;;
19207;SDS011;9737;59.466;18.036;2023-07-20T11:35:59;2.90;;;1.23;;
19207;SDS011;9737;59.466;18.036;2023-07-20T11:38:27;2.17;;;1.17;;
19207;SDS011;9737;59.466;18.036;2023-07-20T11:40:54;3.78;;;1.38;;
19207;SDS011;9737;59.466;18.036;2023-07-20T11:43:23;2.53;;;1.10;;
19207;SDS011;9737;59.466;18.036;2023-07-20T11:45:53;4.82;;;1.40;;
19207;SDS011;9737;59.466;18.036;2023-07-20T11:48:21;4.35;;;1.40;;
19207;SDS011;9737;59.466;18.036;2023-07-20T11:50:49;1.63;;;1.23;;
19207;SDS011;9737;59.466;18.036;2023-07-20T11:53:17;4.05;;;1.20;;
19207;SDS011;9737;59.466;18.036;2023-07-20T11:55:46;2.53;;;1.30;;
19207;SDS011;9737;59.466;18.036;2023-07-20T11:58:14;3.00;;;1.30;;
19207;SDS011;9737;59.466;18.036;2023-07-20T12:00:43;3.28;;;1.23;;
19207;SDS011;9737;59.466;18.036;2023-07-20T12:03:13;2.08;;;1.20;;
19207;SDS011;9737;59.466;18.036;2023-07-20T12:05:41;5.35;;;1.48;;
19207;SDS011;9737;59.466;18.036;2023-07-20T12:08:27;1.67;;;1.13;;
19207;SDS011;9737;59.466;18.036;2023-07-20T12:10:55;3.67;;;1.20;;
19207;SDS011;9737;59.466;18.036;2023-07-20T12:13:23;1.42;;;1.02;;
19207;SDS011;9737;59.466;18.036;2023-07-20T12:15:52;1.90;;;1.30;;
19207;SDS011;9737;59.466;18.036;2023-07-20T12:18:23;1.08;;;0.98;;
19207;SDS011;9737;59.466;18.036;2023-07-20T12:21:02;2.25;;;1.10;;
19207;SDS011;9737;59.466;18.036;2023-07-20T12:23:34;1.92;;;1.20;;
19207;SDS011;9737;59.466;18.036;2023-07-20T12:26:05;1.65;;;1.00;;
19207;SDS011;9737;59.466;18.036;2023-07-20T12:28:35;2.60;;;1.20;;
19207;SDS011;9737;59.466;18.036;2023-07-20T12:31:06;1.80;;;1.20;;
19207;SDS011;9737;59.466;18.036;2023-07-20T12:33:35;2.10;;;1.10;;
19207;SDS011;9737;59.466;18.036;2023-07-20T12:36:03;2.25;;;1.20;;
19207;SDS011;9737;59.466;18.036;2023-07-20T12:38:31;2.53;;;1.13;;
19207;SDS011;9737;59.466;18.036;2023-07-20T12:41:00;2.17;;;1.25;;
19207;SDS011;9737;59.466;18.036;2023-07-20T12:43:28;4.30;;;1.38;;
19207;SDS011;9737;59.466;18.036;2023-07-20T12:45:56;1.75;;;1.08;;
19207;SDS011;9737;59.466;18.036;2023-07-20T12:48:25;4.40;;;1.20;;
19207;SDS011;9737;59.466;18.036;2023-07-20T12:50:54;2.35;;;1.20;;
19207;SDS011;9737;59.466;18.036;2023-07-20T12:53:22;4.00;;;1.25;;
19207;SDS011;9737;59.466;18.036;2023-07-20T12:55:50;2.45;;;1.20;;
19207;SDS011;9737;59.466;18.036;2023-07-20T12:58:18;3.97;;;1.17;;
19207;SDS011;9737;59.466;18.036;2023-07-20T13:00:46;2.22;;;1.10;;
19207;SDS011;9737;59.466;18.036;2023-07-20T13:03:14;1.95;;;1.00;;
19207;SDS011;9737;59.466;18.036;2023-07-20T13:05:59;1.52;;;0.90;;
19207;SDS011;9737;59.466;18.036;2023-07-20T13:08:29;3.75;;;1.30;;
19207;SDS011;9737;59.466;18.036;2023-07-20T13:10:57;2.22;;;1.00;;
19207;SDS011;9737;59.466;18.036;2023-07-20T13:13:27;1.65;;;1.15;;
19207;SDS011;9737;59.466;18.036;2023-07-20T13:15:54;3.50;;;1.20;;
19207;SDS011;9737;59.466;18.036;2023-07-20T13:18:22;1.67;;;1.02;;
19207;SDS011;9737;59.466;18.036;2023-07-20T13:20:50;2.53;;;1.02;;
19207;SDS011;9737;59.466;18.036;2023-07-20T13:23:19;1.30;;;1.00;;
19207;SDS011;9737;59.466;18.036;2023-07-20T13:25:47;2.42;;;1.00;;
19207;SDS011;9737;59.466;18.036;2023-07-20T13:28:16;3.10;;;1.10;;
19207;SDS011;9737;59.466;18.036;2023-07-20T13:30:44;2.15;;;0.90;;
19207;SDS011;9737;59.466;18.036;2023-07-20T13:33:12;3.08;;;1.23;;
19207;SDS011;9737;59.466;18.036;2023-07-20T13:35:44;2.40;;;1.00;;
19207;SDS011;9737;59.466;18.036;2023-07-20T13:38:15;0.80;;;0.80;;
19207;SDS011;9737;59.466;18.036;2023-07-20T13:40:45;1.73;;;1.05;;
19207;SDS011;9737;59.466;18.036;2023-07-20T13:43:12;1.63;;;0.93;;
19207;SDS011;9737;59.466;18.036;2023-07-20T13:45:40;1.33;;;0.93;;
19207;SDS011;9737;59.466;18.036;2023-07-20T13:48:08;2.00;;;0.90;;
19207;SDS011;9737;59.466;18.036;2023-07-20T13:50:36;2.47;;;1.13;;
19207;SDS011;9737;59.466;18.036;2023-07-20T13:53:07;1.77;;;0.90;;
19207;SDS011;9737;59.466;18.036;2023-07-20T13:55:38;2.00;;;0.93;;
19207;SDS011;9737;59.466;18.036;2023-07-20T13:58:10;2.92;;;1.17;;
19207;SDS011;9737;59.466;18.036;2023-07-20T14:00:39;1.77;;;0.90;;
19207;SDS011;9737;59.466;18.036;2023-07-20T14:03:07;2.47;;;1.00;;
19207;SDS011;9737;59.466;18.036;2023-07-20T14:05:38;1.10;;;1.00;;
19207;SDS011;9737;59.466;18.036;2023-07-20T14:08:09;2.55;;;0.98;;
19207;SDS011;9737;59.466;18.036;2023-07-20T14:10:37;6.80;;;1.17;;
19207;SDS011;9737;59.466;18.036;2023-07-20T14:13:09;2.95;;;1.10;;
19207;SDS011;9737;59.466;18.036;2023-07-20T14:15:38;1.13;;;0.85;;
19207;SDS011;9737;59.466;18.036;2023-07-20T14:18:06;1.15;;;1.00;;
19207;SDS011;9737;59.466;18.036;2023-07-20T14:20:34;2.20;;;1.10;;
19207;SDS011;9737;59.466;18.036;2023-07-20T14:23:04;1.38;;;0.90;;
19207;SDS011;9737;59.466;18.036;2023-07-20T14:25:32;3.53;;;1.10;;
19207;SDS011;9737;59.466;18.036;2023-07-20T14:28:03;2.53;;;0.98;;
19207;SDS011;9737;59.466;18.036;2023-07-20T14:30:32;1.83;;;1.00;;
19207;SDS011;9737;59.466;18.036;2023-07-20T14:33:00;2.13;;;1.10;;
19207;SDS011;9737;59.466;18.036;2023-07-20T14:35:29;2.28;;;0.73;;
19207;SDS011;9737;59.466;18.036;2023-07-20T14:37:57;1.13;;;0.82;;
19207;SDS011;9737;59.466;18.036;2023-07-20T14:40:25;1.52;;;1.00;;
19207;SDS011;9737;59.466;18.036;2023-07-20T14:42:52;2.47;;;1.00;;
19207;SDS011;9737;59.466;18.036;2023-07-20T14:45:21;2.28;;;1.20;;
19207;SDS011;9737;59.466;18.036;2023-07-20T14:47:50;2.40;;;1.10;;
19207;SDS011;9737;59.466;18.036;2023-07-20T14:50:20;1.83;;;0.90;;
19207;SDS011;9737;59.466;18.036;2023-07-20T14:52:48;1.70;;;0.95;;
19207;SDS011;9737;59.466;18.036;2023-07-20T14:55:17;2.28;;;0.95;;
19207;SDS011;9737;59.466;18.036;2023-07-20T14:57:45;2.08;;;1.13;;
19207;SDS011;9737;59.466;18.036;2023-07-20T15:00:13;3.33;;;1.23;;
19207;SDS011;9737;59.466;18.036;2023-07-20T15:02:42;3.58;;;1.10;;